sensor_id;sensor_type;location;lat;lon;timestamp;P1;durP1;ratioP1;P2;durP2;ratioP2
40971;SDS011;26701;47.408;19.174;2023-01-16T00:00:56;58.33;;;29.80;;
40971;SDS011;26701;47.408;19.174;2023-01-16T00:03:23;56.70;;;30.05;;
40971;SDS011;26701;47.408;19.174;2023-01-16T00:05:49;56.60;;;29.90;;
40971;SDS011;26701;47.408;19.174;2023-01-16T00:08:15;63.17;;;31.25;;
40971;SDS011;26701;47.408;19.174;2023-01-16T00:10:42;56.35;;;28.20;;
40971;SDS011;26701;47.408;19.174;2023-01-16T00:13:10;60.58;;;29.77;;
40971;SDS011;26701;47.408;19.174;2023-01-16T00:15:36;56.78;;;29.23;;
40971;SDS011;26701;47.408;19.174;2023-01-16T00:18:03;55.20;;;30.10;;
40971;SDS011;26701;47.408;19.174;2023-01-16T00:20:29;59.22;;;30.20;;
40971;SDS011;26701;47.408;19.174;2023-01-16T00:22:55;60.20;;;30.48;;
40971;SDS011;26701;47.408;19.174;2023-01-16T00:25:21;60.60;;;29.52;;
40971;SDS011;26701;47.408;19.174;2023-01-16T00:27:47;57.30;;;28.98;;
40971;SDS011;26701;47.408;19.174;2023-01-16T00:30:13;56.17;;;28.67;;
40971;SDS011;26701;47.408;19.174;2023-01-16T00:32:39;59.67;;;29.42;;
40971;SDS011;26701;47.408;19.174;2023-01-16T00:35:05;57.13;;;29.60;;
40971;SDS011;26701;47.408;19.174;2023-01-16T00:37:31;54.25;;;28.95;;
40971;SDS011;26701;47.408;19.174;2023-01-16T00:39:57;53.28;;;28.55;;
40971;SDS011;26701;47.408;19.174;2023-01-16T00:42:23;52.83;;;27.98;;
40971;SDS011;26701;47.408;19.174;2023-01-16T00:44:49;57.28;;;27.70;;
40971;SDS011;26701;47.408;19.174;2023-01-16T00:47:15;56.47;;;29.55;;
40971;SDS011;26701;47.408;19.174;2023-01-16T00:49:41;53.90;;;27.92;;
40971;SDS011;26701;47.408;19.174;2023-01-16T00:52:06;53.13;;;25.73;;
40971;SDS011;26701;47.408;19.174;2023-01-16T00:54:32;57.40;;;27.90;;
40971;SDS011;26701;47.408;19.174;2023-01-16T00:56:58;50.72;;;25.85;;
40971;SDS011;26701;47.408;19.174;2023-01-16T00:59:24;55.45;;;27.92;;
40971;SDS011;26701;47.408;19.174;2023-01-16T01:01:50;62.13;;;31.17;;
40971;SDS011;26701;47.408;19.174;2023-01-16T01:04:16;49.10;;;25.73;;
40971;SDS011;26701;47.408;19.174;2023-01-16T01:06:42;61.38;;;31.95;;
40971;SDS011;26701;47.408;19.174;2023-01-16T01:09:08;62.65;;;32.40;;
40971;SDS011;26701;47.408;19.174;2023-01-16T01:11:34;67.97;;;34.95;;
40971;SDS011;26701;47.408;19.174;2023-01-16T01:14:00;64.15;;;33.45;;
40971;SDS011;26701;47.408;19.174;2023-01-16T01:16:26;68.97;;;34.08;;
40971;SDS011;26701;47.408;19.174;2023-01-16T01:18:52;63.65;;;32.65;;
40971;SDS011;26701;47.408;19.174;2023-01-16T01:21:17;66.93;;;34.00;;
40971;SDS011;26701;47.408;19.174;2023-01-16T01:23:43;71.07;;;34.55;;
40971;SDS011;26701;47.408;19.174;2023-01-16T01:26:15;66.68;;;33.47;;
40971;SDS011;26701;47.408;19.174;2023-01-16T01:28:42;61.58;;;30.42;;
40971;SDS011;26701;47.408;19.174;2023-01-16T01:31:09;63.13;;;31.63;;
40971;SDS011;26701;47.408;19.174;2023-01-16T01:33:37;56.45;;;29.77;;
40971;SDS011;26701;47.408;19.174;2023-01-16T01:36:04;64.07;;;31.65;;
40971;SDS011;26701;47.408;19.174;2023-01-16T01:38:31;64.75;;;33.75;;
40971;SDS011;26701;47.408;19.174;2023-01-16T01:40:57;58.45;;;30.85;;
40971;SDS011;26701;47.408;19.174;2023-01-16T01:46:26;62.22;;;30.38;;
40971;SDS011;26701;47.408;19.174;2023-01-16T01:49:21;59.78;;;30.00;;
40971;SDS011;26701;47.408;19.174;2023-01-16T01:51:50;58.38;;;29.27;;
40971;SDS011;26701;47.408;19.174;2023-01-16T01:54:24;61.47;;;30.92;;
40971;SDS011;26701;47.408;19.174;2023-01-16T01:57:17;63.85;;;33.65;;
40971;SDS011;26701;47.408;19.174;2023-01-16T01:59:53;59.70;;;30.85;;
40971;SDS011;26701;47.408;19.174;2023-01-16T02:02:37;55.90;;;28.83;;
40971;SDS011;26701;47.408;19.174;2023-01-16T02:05:09;66.88;;;32.45;;
40971;SDS011;26701;47.408;19.174;2023-01-16T02:07:38;59.95;;;29.80;;
40971;SDS011;26701;47.408;19.174;2023-01-16T02:10:06;63.63;;;31.02;;
40971;SDS011;26701;47.408;19.174;2023-01-16T02:12:35;57.80;;;28.38;;
40971;SDS011;26701;47.408;19.174;2023-01-16T02:15:04;59.08;;;28.90;;
40971;SDS011;26701;47.408;19.174;2023-01-16T02:17:30;54.38;;;27.95;;
40971;SDS011;26701;47.408;19.174;2023-01-16T02:20:22;51.25;;;25.30;;
40971;SDS011;26701;47.408;19.174;2023-01-16T02:31:15;49.42;;;24.88;;
40971;SDS011;26701;47.408;19.174;2023-01-16T02:34:17;53.05;;;27.33;;
40971;SDS011;26701;47.408;19.174;2023-01-16T02:39:44;53.58;;;26.83;;
40971;SDS011;26701;47.408;19.174;2023-01-16T02:44:50;49.80;;;26.25;;
40971;SDS011;26701;47.408;19.174;2023-01-16T02:47:46;54.55;;;28.92;;
40971;SDS011;26701;47.408;19.174;2023-01-16T02:50:31;50.80;;;25.75;;
40971;SDS011;26701;47.408;19.174;2023-01-16T02:55:56;47.30;;;25.92;;
40971;SDS011;26701;47.408;19.174;2023-01-16T02:58:29;50.10;;;26.33;;
40971;SDS011;26701;47.408;19.174;2023-01-16T03:03:38;55.17;;;25.20;;
40971;SDS011;26701;47.408;19.174;2023-01-16T03:11:47;49.70;;;26.17;;
40971;SDS011;26701;47.408;19.174;2023-01-16T03:14:30;49.67;;;26.10;;
40971;SDS011;26701;47.408;19.174;2023-01-16T03:17:15;49.38;;;25.98;;
40971;SDS011;26701;47.408;19.174;2023-01-16T03:25:41;50.22;;;25.17;;
40971;SDS011;26701;47.408;19.174;2023-01-16T03:36:34;53.38;;;25.48;;
40971;SDS011;26701;47.408;19.174;2023-01-16T03:39:04;51.63;;;27.13;;
40971;SDS011;26701;47.408;19.174;2023-01-16T03:41:33;49.92;;;25.95;;
40971;SDS011;26701;47.408;19.174;2023-01-16T03:44:04;52.85;;;26.58;;
40971;SDS011;26701;47.408;19.174;2023-01-16T03:46:37;59.97;;;28.25;;
40971;SDS011;26701;47.408;19.174;2023-01-16T03:49:09;50.08;;;26.10;;
40971;SDS011;26701;47.408;19.174;2023-01-16T03:51:41;49.53;;;25.52;;
40971;SDS011;26701;47.408;19.174;2023-01-16T03:54:23;50.60;;;27.10;;
40971;SDS011;26701;47.408;19.174;2023-01-16T03:57:10;56.37;;;27.50;;
40971;SDS011;26701;47.408;19.174;2023-01-16T03:59:41;50.45;;;28.75;;
40971;SDS011;26701;47.408;19.174;2023-01-16T04:05:16;51.03;;;24.90;;
40971;SDS011;26701;47.408;19.174;2023-01-16T04:07:44;47.30;;;25.02;;
40971;SDS011;26701;47.408;19.174;2023-01-16T04:10:18;43.33;;;22.83;;
40971;SDS011;26701;47.408;19.174;2023-01-16T04:12:52;46.28;;;24.38;;
40971;SDS011;26701;47.408;19.174;2023-01-16T04:15:24;50.08;;;26.17;;
40971;SDS011;26701;47.408;19.174;2023-01-16T04:17:51;48.58;;;25.15;;
40971;SDS011;26701;47.408;19.174;2023-01-16T04:20:18;49.05;;;26.17;;
40971;SDS011;26701;47.408;19.174;2023-01-16T04:22:48;56.50;;;26.45;;
40971;SDS011;26701;47.408;19.174;2023-01-16T04:25:15;52.33;;;27.02;;
40971;SDS011;26701;47.408;19.174;2023-01-16T04:27:42;55.65;;;28.58;;
40971;SDS011;26701;47.408;19.174;2023-01-16T04:30:08;50.80;;;27.40;;
40971;SDS011;26701;47.408;19.174;2023-01-16T04:32:35;57.05;;;26.88;;
40971;SDS011;26701;47.408;19.174;2023-01-16T04:35:01;47.40;;;25.73;;
40971;SDS011;26701;47.408;19.174;2023-01-16T04:37:27;51.47;;;26.95;;
40971;SDS011;26701;47.408;19.174;2023-01-16T04:39:53;53.35;;;27.02;;
40971;SDS011;26701;47.408;19.174;2023-01-16T04:42:19;56.05;;;28.83;;
40971;SDS011;26701;47.408;19.174;2023-01-16T04:44:45;50.08;;;26.88;;
40971;SDS011;26701;47.408;19.174;2023-01-16T04:47:11;53.33;;;28.10;;
40971;SDS011;26701;47.408;19.174;2023-01-16T04:49:37;58.13;;;29.67;;
40971;SDS011;26701;47.408;19.174;2023-01-16T04:52:03;56.20;;;28.35;;
40971;SDS011;26701;47.408;19.174;2023-01-16T04:54:29;49.78;;;28.55;;
40971;SDS011;26701;47.408;19.174;2023-01-16T04:56:55;53.97;;;27.52;;
40971;SDS011;26701;47.408;19.174;2023-01-16T04:59:21;50.03;;;26.05;;
40971;SDS011;26701;47.408;19.174;2023-01-16T05:01:47;54.10;;;26.98;;
40971;SDS011;26701;47.408;19.174;2023-01-16T05:04:14;62.65;;;28.45;;
40971;SDS011;26701;47.408;19.174;2023-01-16T05:06:40;51.28;;;27.27;;
40971;SDS011;26701;47.408;19.174;2023-01-16T05:09:06;54.20;;;28.55;;
40971;SDS011;26701;47.408;19.174;2023-01-16T05:11:33;55.25;;;28.15;;
40971;SDS011;26701;47.408;19.174;2023-01-16T05:13:59;58.35;;;31.00;;
40971;SDS011;26701;47.408;19.174;2023-01-16T05:16:25;60.88;;;28.65;;
40971;SDS011;26701;47.408;19.174;2023-01-16T05:18:51;57.17;;;27.30;;
40971;SDS011;26701;47.408;19.174;2023-01-16T05:21:17;60.63;;;32.25;;
40971;SDS011;26701;47.408;19.174;2023-01-16T05:23:43;62.10;;;33.45;;
40971;SDS011;26701;47.408;19.174;2023-01-16T05:26:09;63.78;;;31.17;;
40971;SDS011;26701;47.408;19.174;2023-01-16T05:28:35;59.35;;;32.22;;
40971;SDS011;26701;47.408;19.174;2023-01-16T05:31:01;61.65;;;31.50;;
40971;SDS011;26701;47.408;19.174;2023-01-16T05:33:27;67.47;;;34.00;;
40971;SDS011;26701;47.408;19.174;2023-01-16T05:35:54;65.13;;;32.38;;
40971;SDS011;26701;47.408;19.174;2023-01-16T05:38:20;66.20;;;34.13;;
40971;SDS011;26701;47.408;19.174;2023-01-16T05:40:46;66.95;;;34.17;;
40971;SDS011;26701;47.408;19.174;2023-01-16T05:43:12;69.78;;;35.38;;
40971;SDS011;26701;47.408;19.174;2023-01-16T05:45:38;69.32;;;32.63;;
40971;SDS011;26701;47.408;19.174;2023-01-16T05:48:04;73.20;;;34.35;;
40971;SDS011;26701;47.408;19.174;2023-01-16T05:50:30;74.10;;;35.85;;
40971;SDS011;26701;47.408;19.174;2023-01-16T05:52:57;62.95;;;34.05;;
40971;SDS011;26701;47.408;19.174;2023-01-16T05:55:23;68.82;;;32.55;;
40971;SDS011;26701;47.408;19.174;2023-01-16T05:57:49;64.47;;;32.10;;
40971;SDS011;26701;47.408;19.174;2023-01-16T06:00:15;72.55;;;33.55;;
40971;SDS011;26701;47.408;19.174;2023-01-16T06:02:41;66.57;;;32.85;;
40971;SDS011;26701;47.408;19.174;2023-01-16T06:05:07;67.25;;;33.08;;
40971;SDS011;26701;47.408;19.174;2023-01-16T06:07:34;66.38;;;32.78;;
40971;SDS011;26701;47.408;19.174;2023-01-16T06:10:00;73.75;;;32.25;;
40971;SDS011;26701;47.408;19.174;2023-01-16T06:12:26;66.57;;;33.67;;
40971;SDS011;26701;47.408;19.174;2023-01-16T06:14:52;68.72;;;32.58;;
40971;SDS011;26701;47.408;19.174;2023-01-16T06:17:18;72.47;;;32.30;;
40971;SDS011;26701;47.408;19.174;2023-01-16T06:19:45;69.78;;;34.88;;
40971;SDS011;26701;47.408;19.174;2023-01-16T06:22:11;69.85;;;33.28;;
40971;SDS011;26701;47.408;19.174;2023-01-16T06:24:38;61.35;;;28.92;;
40971;SDS011;26701;47.408;19.174;2023-01-16T06:27:04;62.25;;;29.63;;
40971;SDS011;26701;47.408;19.174;2023-01-16T06:29:30;70.45;;;33.55;;
40971;SDS011;26701;47.408;19.174;2023-01-16T06:31:56;57.42;;;28.23;;
40971;SDS011;26701;47.408;19.174;2023-01-16T06:34:22;65.43;;;33.17;;
40971;SDS011;26701;47.408;19.174;2023-01-16T06:36:48;54.85;;;27.70;;
40971;SDS011;26701;47.408;19.174;2023-01-16T06:39:14;63.20;;;30.35;;
40971;SDS011;26701;47.408;19.174;2023-01-16T06:41:41;57.55;;;28.75;;
40971;SDS011;26701;47.408;19.174;2023-01-16T06:44:07;69.82;;;31.95;;
40971;SDS011;26701;47.408;19.174;2023-01-16T06:46:33;58.25;;;29.60;;
40971;SDS011;26701;47.408;19.174;2023-01-16T06:48:59;54.63;;;28.65;;
40971;SDS011;26701;47.408;19.174;2023-01-16T06:51:25;59.65;;;28.65;;
40971;SDS011;26701;47.408;19.174;2023-01-16T06:53:50;54.78;;;27.85;;
40971;SDS011;26701;47.408;19.174;2023-01-16T06:56:17;56.83;;;30.98;;
40971;SDS011;26701;47.408;19.174;2023-01-16T06:58:43;60.63;;;29.38;;
40971;SDS011;26701;47.408;19.174;2023-01-16T07:01:08;58.25;;;29.02;;
40971;SDS011;26701;47.408;19.174;2023-01-16T07:03:34;63.50;;;32.55;;
40971;SDS011;26701;47.408;19.174;2023-01-16T07:06:01;63.90;;;31.20;;
40971;SDS011;26701;47.408;19.174;2023-01-16T07:08:27;57.95;;;28.63;;
40971;SDS011;26701;47.408;19.174;2023-01-16T07:10:53;59.83;;;30.42;;
40971;SDS011;26701;47.408;19.174;2023-01-16T07:13:19;76.10;;;36.20;;
40971;SDS011;26701;47.408;19.174;2023-01-16T07:15:52;69.25;;;31.88;;
40971;SDS011;26701;47.408;19.174;2023-01-16T07:18:36;62.47;;;27.85;;
40971;SDS011;26701;47.408;19.174;2023-01-16T07:21:35;98.75;;;46.10;;
40971;SDS011;26701;47.408;19.174;2023-01-16T07:24:22;123.63;;;60.35;;
40971;SDS011;26701;47.408;19.174;2023-01-16T07:26:51;119.18;;;59.03;;
40971;SDS011;26701;47.408;19.174;2023-01-16T07:29:25;89.25;;;46.72;;
40971;SDS011;26701;47.408;19.174;2023-01-16T07:31:52;73.82;;;34.78;;
40971;SDS011;26701;47.408;19.174;2023-01-16T07:34:19;61.85;;;31.38;;
40971;SDS011;26701;47.408;19.174;2023-01-16T07:36:46;59.80;;;30.27;;
40971;SDS011;26701;47.408;19.174;2023-01-16T07:39:12;62.17;;;32.22;;
40971;SDS011;26701;47.408;19.174;2023-01-16T07:41:37;62.25;;;31.60;;
40971;SDS011;26701;47.408;19.174;2023-01-16T07:44:06;69.75;;;35.33;;
40971;SDS011;26701;47.408;19.174;2023-01-16T07:46:32;67.97;;;31.65;;
40971;SDS011;26701;47.408;19.174;2023-01-16T07:48:58;72.20;;;36.08;;
40971;SDS011;26701;47.408;19.174;2023-01-16T07:51:24;77.72;;;38.63;;
40971;SDS011;26701;47.408;19.174;2023-01-16T07:53:50;70.97;;;37.13;;
40971;SDS011;26701;47.408;19.174;2023-01-16T07:56:15;76.47;;;35.38;;
40971;SDS011;26701;47.408;19.174;2023-01-16T07:58:42;87.38;;;37.38;;
40971;SDS011;26701;47.408;19.174;2023-01-16T08:01:08;80.40;;;37.40;;
40971;SDS011;26701;47.408;19.174;2023-01-16T08:03:35;71.50;;;36.13;;
40971;SDS011;26701;47.408;19.174;2023-01-16T08:06:01;67.05;;;35.78;;
40971;SDS011;26701;47.408;19.174;2023-01-16T08:08:28;67.40;;;33.97;;
40971;SDS011;26701;47.408;19.174;2023-01-16T08:10:55;69.95;;;34.08;;
40971;SDS011;26701;47.408;19.174;2023-01-16T08:13:22;68.95;;;32.20;;
40971;SDS011;26701;47.408;19.174;2023-01-16T08:15:48;60.88;;;30.08;;
40971;SDS011;26701;47.408;19.174;2023-01-16T08:18:16;63.20;;;30.40;;
40971;SDS011;26701;47.408;19.174;2023-01-16T08:20:43;61.42;;;32.05;;
40971;SDS011;26701;47.408;19.174;2023-01-16T08:23:09;65.13;;;28.58;;
40971;SDS011;26701;47.408;19.174;2023-01-16T08:25:35;57.97;;;28.75;;
40971;SDS011;26701;47.408;19.174;2023-01-16T08:28:02;49.08;;;26.27;;
40971;SDS011;26701;47.408;19.174;2023-01-16T08:30:28;45.97;;;24.13;;
40971;SDS011;26701;47.408;19.174;2023-01-16T08:32:58;47.03;;;24.75;;
40971;SDS011;26701;47.408;19.174;2023-01-16T08:35:27;48.65;;;23.58;;
40971;SDS011;26701;47.408;19.174;2023-01-16T08:37:53;59.45;;;23.92;;
40971;SDS011;26701;47.408;19.174;2023-01-16T08:40:19;44.55;;;19.92;;
40971;SDS011;26701;47.408;19.174;2023-01-16T08:42:46;40.10;;;20.13;;
40971;SDS011;26701;47.408;19.174;2023-01-16T08:45:30;39.90;;;20.60;;
40971;SDS011;26701;47.408;19.174;2023-01-16T08:48:15;45.10;;;19.90;;
40971;SDS011;26701;47.408;19.174;2023-01-16T08:51:07;40.47;;;18.45;;
40971;SDS011;26701;47.408;19.174;2023-01-16T08:53:48;38.08;;;18.83;;
40971;SDS011;26701;47.408;19.174;2023-01-16T08:56:15;44.63;;;19.80;;
40971;SDS011;26701;47.408;19.174;2023-01-16T08:58:41;40.42;;;20.63;;
40971;SDS011;26701;47.408;19.174;2023-01-16T09:01:07;41.08;;;20.27;;
40971;SDS011;26701;47.408;19.174;2023-01-16T09:03:33;39.65;;;19.90;;
40971;SDS011;26701;47.408;19.174;2023-01-16T09:05:59;40.17;;;20.10;;
40971;SDS011;26701;47.408;19.174;2023-01-16T09:08:25;34.67;;;18.25;;
40971;SDS011;26701;47.408;19.174;2023-01-16T09:10:51;46.20;;;22.17;;
40971;SDS011;26701;47.408;19.174;2023-01-16T09:13:36;45.33;;;20.30;;
40971;SDS011;26701;47.408;19.174;2023-01-16T09:16:16;42.50;;;20.08;;
40971;SDS011;26701;47.408;19.174;2023-01-16T09:18:41;42.67;;;19.75;;
40971;SDS011;26701;47.408;19.174;2023-01-16T09:21:08;34.90;;;18.77;;
40971;SDS011;26701;47.408;19.174;2023-01-16T09:23:34;48.63;;;22.33;;
40971;SDS011;26701;47.408;19.174;2023-01-16T09:26:00;49.15;;;22.30;;
40971;SDS011;26701;47.408;19.174;2023-01-16T09:28:26;47.03;;;21.38;;
40971;SDS011;26701;47.408;19.174;2023-01-16T09:30:52;42.13;;;19.52;;
40971;SDS011;26701;47.408;19.174;2023-01-16T09:33:17;51.88;;;21.95;;
40971;SDS011;26701;47.408;19.174;2023-01-16T09:35:43;46.15;;;19.88;;
40971;SDS011;26701;47.408;19.174;2023-01-16T09:38:09;45.83;;;22.30;;
40971;SDS011;26701;47.408;19.174;2023-01-16T09:40:35;39.60;;;19.50;;
40971;SDS011;26701;47.408;19.174;2023-01-16T09:48:30;60.20;;;31.70;;
40971;SDS011;26701;47.408;19.174;2023-01-16T09:50:59;56.72;;;28.02;;
40971;SDS011;26701;47.408;19.174;2023-01-16T09:53:34;53.70;;;27.08;;
40971;SDS011;26701;47.408;19.174;2023-01-16T09:56:31;42.97;;;22.13;;
40971;SDS011;26701;47.408;19.174;2023-01-16T10:04:49;43.03;;;20.27;;
40971;SDS011;26701;47.408;19.174;2023-01-16T10:12:31;43.60;;;20.95;;
40971;SDS011;26701;47.408;19.174;2023-01-16T10:20:17;53.38;;;21.15;;
40971;SDS011;26701;47.408;19.174;2023-01-16T10:25:29;41.80;;;19.63;;
40971;SDS011;26701;47.408;19.174;2023-01-16T10:28:08;51.35;;;21.60;;
40971;SDS011;26701;47.408;19.174;2023-01-16T10:30:48;44.75;;;20.83;;
40971;SDS011;26701;47.408;19.174;2023-01-16T10:33:20;56.72;;;24.05;;
40971;SDS011;26701;47.408;19.174;2023-01-16T10:35:56;45.20;;;21.92;;
40971;SDS011;26701;47.408;19.174;2023-01-16T10:38:35;48.65;;;20.52;;
40971;SDS011;26701;47.408;19.174;2023-01-16T10:41:05;55.10;;;24.15;;
40971;SDS011;26701;47.408;19.174;2023-01-16T10:44:53;39.95;;;19.17;;
40971;SDS011;26701;47.408;19.174;2023-01-16T10:47:11;50.42;;;21.63;;
40971;SDS011;26701;47.408;19.174;2023-01-16T10:49:57;52.83;;;22.55;;
40971;SDS011;26701;47.408;19.174;2023-01-16T10:52:23;47.67;;;20.13;;
40971;SDS011;26701;47.408;19.174;2023-01-16T10:54:51;48.78;;;21.13;;
40971;SDS011;26701;47.408;19.174;2023-01-16T10:57:21;45.55;;;21.38;;
40971;SDS011;26701;47.408;19.174;2023-01-16T10:59:49;41.85;;;20.02;;
40971;SDS011;26701;47.408;19.174;2023-01-16T11:02:17;42.05;;;21.85;;
40971;SDS011;26701;47.408;19.174;2023-01-16T11:04:54;44.97;;;21.45;;
40971;SDS011;26701;47.408;19.174;2023-01-16T11:07:21;46.65;;;21.77;;
40971;SDS011;26701;47.408;19.174;2023-01-16T11:09:48;40.70;;;20.52;;
40971;SDS011;26701;47.408;19.174;2023-01-16T11:12:21;47.00;;;21.50;;
40971;SDS011;26701;47.408;19.174;2023-01-16T11:15:18;40.05;;;20.50;;
40971;SDS011;26701;47.408;19.174;2023-01-16T11:21:12;49.88;;;22.42;;
40971;SDS011;26701;47.408;19.174;2023-01-16T11:23:49;51.03;;;21.35;;
40971;SDS011;26701;47.408;19.174;2023-01-16T11:26:26;50.95;;;22.25;;
40971;SDS011;26701;47.408;19.174;2023-01-16T11:28:53;47.08;;;23.02;;
40971;SDS011;26701;47.408;19.174;2023-01-16T11:31:21;48.75;;;20.77;;
40971;SDS011;26701;47.408;19.174;2023-01-16T11:33:59;50.42;;;23.48;;
40971;SDS011;26701;47.408;19.174;2023-01-16T11:36:33;48.95;;;22.23;;
40971;SDS011;26701;47.408;19.174;2023-01-16T11:39:02;58.08;;;24.67;;
40971;SDS011;26701;47.408;19.174;2023-01-16T11:41:31;56.75;;;25.95;;
40971;SDS011;26701;47.408;19.174;2023-01-16T11:47:20;58.80;;;24.20;;
40971;SDS011;26701;47.408;19.174;2023-01-16T11:49:48;57.22;;;23.85;;
40971;SDS011;26701;47.408;19.174;2023-01-16T11:52:20;58.08;;;25.85;;
40971;SDS011;26701;47.408;19.174;2023-01-16T11:54:56;48.58;;;23.45;;
40971;SDS011;26701;47.408;19.174;2023-01-16T11:57:35;52.83;;;23.08;;
40971;SDS011;26701;47.408;19.174;2023-01-16T12:01:06;59.08;;;22.90;;
40971;SDS011;26701;47.408;19.174;2023-01-16T12:07:05;52.13;;;23.02;;
40971;SDS011;26701;47.408;19.174;2023-01-16T12:14:29;55.58;;;23.98;;
40971;SDS011;26701;47.408;19.174;2023-01-16T12:17:13;51.25;;;23.35;;
40971;SDS011;26701;47.408;19.174;2023-01-16T12:33:57;53.97;;;23.80;;
40971;SDS011;26701;47.408;19.174;2023-01-16T12:36:40;52.17;;;22.38;;
40971;SDS011;26701;47.408;19.174;2023-01-16T12:50:58;56.53;;;25.77;;
40971;SDS011;26701;47.408;19.174;2023-01-16T12:58:49;55.33;;;27.30;;
40971;SDS011;26701;47.408;19.174;2023-01-16T13:01:25;54.63;;;24.92;;
40971;SDS011;26701;47.408;19.174;2023-01-16T13:06:36;61.50;;;26.08;;
40971;SDS011;26701;47.408;19.174;2023-01-16T13:09:04;53.97;;;24.95;;
40971;SDS011;26701;47.408;19.174;2023-01-16T13:11:49;57.88;;;26.67;;
40971;SDS011;26701;47.408;19.174;2023-01-16T13:14:45;55.67;;;24.58;;
40971;SDS011;26701;47.408;19.174;2023-01-16T13:17:17;58.80;;;25.80;;
40971;SDS011;26701;47.408;19.174;2023-01-16T13:19:51;56.70;;;25.58;;
40971;SDS011;26701;47.408;19.174;2023-01-16T13:22:24;59.63;;;26.13;;
40971;SDS011;26701;47.408;19.174;2023-01-16T13:24:58;58.35;;;26.00;;
40971;SDS011;26701;47.408;19.174;2023-01-16T13:27:40;56.90;;;26.23;;
40971;SDS011;26701;47.408;19.174;2023-01-16T13:30:12;56.65;;;27.52;;
40971;SDS011;26701;47.408;19.174;2023-01-16T13:32:48;60.03;;;26.77;;
40971;SDS011;26701;47.408;19.174;2023-01-16T13:47:14;58.15;;;23.83;;
40971;SDS011;26701;47.408;19.174;2023-01-16T13:49:54;43.13;;;21.15;;
40971;SDS011;26701;47.408;19.174;2023-01-16T13:52:31;49.80;;;23.08;;
40971;SDS011;26701;47.408;19.174;2023-01-16T13:55:00;47.80;;;21.80;;
40971;SDS011;26701;47.408;19.174;2023-01-16T13:57:31;51.40;;;23.27;;
40971;SDS011;26701;47.408;19.174;2023-01-16T13:59:58;51.60;;;23.98;;
40971;SDS011;26701;47.408;19.174;2023-01-16T14:15:50;49.30;;;22.17;;
40971;SDS011;26701;47.408;19.174;2023-01-16T14:18:42;45.95;;;21.98;;
40971;SDS011;26701;47.408;19.174;2023-01-16T14:24:16;47.60;;;22.57;;
40971;SDS011;26701;47.408;19.174;2023-01-16T14:29:26;46.13;;;19.70;;
40971;SDS011;26701;47.408;19.174;2023-01-16T14:32:00;45.75;;;21.85;;
40971;SDS011;26701;47.408;19.174;2023-01-16T14:34:36;42.47;;;20.33;;
40971;SDS011;26701;47.408;19.174;2023-01-16T14:37:20;38.67;;;17.55;;
40971;SDS011;26701;47.408;19.174;2023-01-16T14:42:31;41.85;;;19.58;;
40971;SDS011;26701;47.408;19.174;2023-01-16T14:47:59;46.65;;;20.75;;
40971;SDS011;26701;47.408;19.174;2023-01-16T14:51:00;44.47;;;19.23;;
40971;SDS011;26701;47.408;19.174;2023-01-16T14:53:56;37.35;;;17.73;;
40971;SDS011;26701;47.408;19.174;2023-01-16T14:56:46;45.10;;;20.83;;
40971;SDS011;26701;47.408;19.174;2023-01-16T14:59:32;45.30;;;19.30;;
40971;SDS011;26701;47.408;19.174;2023-01-16T15:02:01;41.50;;;20.10;;
40971;SDS011;26701;47.408;19.174;2023-01-16T15:07:17;48.65;;;24.02;;
40971;SDS011;26701;47.408;19.174;2023-01-16T15:10:09;44.40;;;20.42;;
40971;SDS011;26701;47.408;19.174;2023-01-16T15:15:49;45.55;;;20.23;;
40971;SDS011;26701;47.408;19.174;2023-01-16T15:18:21;44.10;;;20.38;;
40971;SDS011;26701;47.408;19.174;2023-01-16T15:21:16;45.45;;;20.23;;
40971;SDS011;26701;47.408;19.174;2023-01-16T15:24:05;41.20;;;19.58;;
40971;SDS011;26701;47.408;19.174;2023-01-16T15:26:45;39.72;;;18.85;;
40971;SDS011;26701;47.408;19.174;2023-01-16T15:29:26;40.85;;;19.65;;
40971;SDS011;26701;47.408;19.174;2023-01-16T15:32:13;37.55;;;18.50;;
40971;SDS011;26701;47.408;19.174;2023-01-16T15:34:46;38.00;;;18.88;;
40971;SDS011;26701;47.408;19.174;2023-01-16T15:37:28;46.63;;;20.05;;
40971;SDS011;26701;47.408;19.174;2023-01-16T15:39:56;47.30;;;21.55;;
40971;SDS011;26701;47.408;19.174;2023-01-16T15:42:23;47.33;;;21.95;;
40971;SDS011;26701;47.408;19.174;2023-01-16T15:45:20;48.85;;;21.55;;
40971;SDS011;26701;47.408;19.174;2023-01-16T15:51:01;51.67;;;23.70;;
40971;SDS011;26701;47.408;19.174;2023-01-16T15:53:36;49.35;;;23.83;;
40971;SDS011;26701;47.408;19.174;2023-01-16T15:56:51;51.30;;;24.30;;
40971;SDS011;26701;47.408;19.174;2023-01-16T15:58:59;53.85;;;23.40;;
40971;SDS011;26701;47.408;19.174;2023-01-16T16:01:26;44.83;;;21.60;;
40971;SDS011;26701;47.408;19.174;2023-01-16T16:03:57;44.20;;;21.45;;
40971;SDS011;26701;47.408;19.174;2023-01-16T16:06:25;48.17;;;22.80;;
40971;SDS011;26701;47.408;19.174;2023-01-16T16:11:21;55.25;;;25.30;;
40971;SDS011;26701;47.408;19.174;2023-01-16T16:14:09;50.13;;;22.70;;
40971;SDS011;26701;47.408;19.174;2023-01-16T16:17:03;54.50;;;24.65;;
40971;SDS011;26701;47.408;19.174;2023-01-16T16:22:53;44.65;;;21.52;;
40971;SDS011;26701;47.408;19.174;2023-01-16T16:27:54;37.10;;;16.77;;
40971;SDS011;26701;47.408;19.174;2023-01-16T16:30:24;36.20;;;15.80;;
40971;SDS011;26701;47.408;19.174;2023-01-16T16:32:52;36.78;;;17.52;;
40971;SDS011;26701;47.408;19.174;2023-01-16T16:35:34;31.75;;;16.23;;
40971;SDS011;26701;47.408;19.174;2023-01-16T16:38:01;40.50;;;18.65;;
40971;SDS011;26701;47.408;19.174;2023-01-16T16:40:27;39.45;;;18.70;;
40971;SDS011;26701;47.408;19.174;2023-01-16T16:42:54;45.17;;;20.35;;
40971;SDS011;26701;47.408;19.174;2023-01-16T16:45:26;49.03;;;21.60;;
40971;SDS011;26701;47.408;19.174;2023-01-16T16:50:44;42.05;;;20.17;;
40971;SDS011;26701;47.408;19.174;2023-01-16T16:53:15;43.88;;;20.60;;
40971;SDS011;26701;47.408;19.174;2023-01-16T16:55:48;46.75;;;22.15;;
40971;SDS011;26701;47.408;19.174;2023-01-16T16:58:18;49.60;;;23.48;;
40971;SDS011;26701;47.408;19.174;2023-01-16T17:00:46;51.80;;;23.08;;
40971;SDS011;26701;47.408;19.174;2023-01-16T17:03:20;53.78;;;23.65;;
40971;SDS011;26701;47.408;19.174;2023-01-16T17:05:47;40.85;;;20.63;;
40971;SDS011;26701;47.408;19.174;2023-01-16T17:08:18;48.15;;;23.25;;
40971;SDS011;26701;47.408;19.174;2023-01-16T17:10:49;44.58;;;22.08;;
40971;SDS011;26701;47.408;19.174;2023-01-16T17:13:19;45.78;;;21.95;;
40971;SDS011;26701;47.408;19.174;2023-01-16T17:15:46;38.70;;;19.33;;
40971;SDS011;26701;47.408;19.174;2023-01-16T17:18:13;40.70;;;20.25;;
40971;SDS011;26701;47.408;19.174;2023-01-16T17:20:40;48.45;;;22.77;;
40971;SDS011;26701;47.408;19.174;2023-01-16T17:23:10;46.70;;;22.35;;
40971;SDS011;26701;47.408;19.174;2023-01-16T17:25:37;41.65;;;21.25;;
40971;SDS011;26701;47.408;19.174;2023-01-16T17:28:03;43.83;;;22.98;;